Terminal Aerodrome Forecast
Issued by NWS

Home | Current Version | Previous Version | Text Only | Print | Product List | Glossary On
Versions: 1 2 3 4 5 6 7 8 9 10 11 12 13 14 15 16
000
FTUS41 KPBZ 251326 AAA
TAFDUJ
TAF AMD
KDUJ 251326Z 2513/2612 12006KT 3SM -SHRA OVC005
     FM251700 19006KT P6SM VCSH OVC020
     FM252000 22005KT P6SM VCSH BKN035
     FM260200 28003KT 4SM -SHRA OVC015
     FM260400 27003KT 4SM -SHRA OVC008=

USA.gov is the U.S. government's official web portal to all federal, state and local government web resources and services.